createdAt,value
2022-08-23T00:00:06.620Z,0.77
2022-08-23T00:03:58.288Z,0.70
2022-08-23T00:07:43.988Z,0.45
2022-08-23T00:11:27.740Z,0.43
2022-08-23T00:15:11.638Z,0.60
2022-08-23T00:18:54.127Z,0.52
2022-08-23T00:22:37.473Z,0.52
2022-08-23T00:26:20.722Z,0.50
2022-08-23T00:30:05.014Z,0.40
2022-08-23T00:33:46.888Z,0.40
2022-08-23T00:37:32.154Z,0.40
2022-08-23T00:41:14.115Z,0.30
2022-08-23T00:45:16.313Z,0.40
2022-08-23T00:48:59.152Z,0.40
2022-08-23T00:52:48.647Z,0.30
2022-08-23T00:56:34.483Z,0.30
2022-08-23T01:00:17.062Z,0.40
2022-08-23T01:04:04.471Z,0.25
2022-08-23T01:07:54.619Z,0.32
2022-08-23T01:12:11.622Z,0.30
2022-08-23T01:16:01.309Z,0.60
2022-08-23T01:20:06.838Z,0.30
2022-08-23T01:23:56.262Z,0.20
2022-08-23T01:27:39.489Z,0.30
2022-08-23T01:31:23.792Z,0.30
2022-08-23T01:35:06.246Z,0.40
2022-08-23T01:38:48.871Z,0.40
2022-08-23T01:42:31.136Z,0.40
2022-08-23T01:46:19.640Z,0.32
2022-08-23T01:50:01.513Z,0.30
2022-08-23T01:53:43.968Z,0.40
2022-08-23T01:57:25.904Z,0.30
2022-08-23T02:01:07.876Z,0.40
2022-08-23T02:04:49.801Z,0.50
2022-08-23T02:08:50.227Z,0.50
2022-08-23T02:12:34.505Z,0.40
2022-08-23T02:16:25.231Z,0.50
2022-08-23T02:20:08.857Z,0.68
2022-08-23T02:23:54.171Z,0.80
2022-08-23T02:27:36.058Z,0.60
2022-08-23T02:31:18.282Z,0.60
2022-08-23T02:35:05.227Z,0.60
2022-08-23T02:38:47.848Z,0.55
2022-08-23T02:42:29.733Z,0.57
2022-08-23T02:46:12.103Z,0.70
2022-08-23T02:49:53.955Z,0.70
2022-08-23T02:53:36.742Z,0.82
2022-08-23T02:57:18.615Z,0.88
2022-08-23T03:01:01.274Z,0.70
2022-08-23T03:04:43.246Z,1.10
2022-08-23T03:08:25.287Z,0.90
2022-08-23T03:12:07.414Z,1.30
2022-08-23T03:15:49.423Z,0.90
2022-08-23T03:19:31.289Z,0.80
2022-08-23T03:23:13.334Z,0.88
2022-08-23T03:26:55.183Z,0.85
2022-08-23T03:30:37.175Z,1.30
2022-08-23T03:34:19.012Z,0.95
2022-08-23T03:38:02.059Z,0.90
2022-08-23T03:41:44.074Z,0.80
2022-08-23T03:45:26.098Z,0.77
2022-08-23T03:49:08.482Z,0.90
2022-08-23T03:52:50.409Z,0.90
2022-08-23T03:56:38.864Z,0.95
2022-08-23T04:00:21.228Z,1.15
2022-08-23T04:04:03.643Z,0.90
2022-08-23T04:07:45.607Z,0.70
2022-08-23T04:11:27.744Z,0.82
2022-08-23T04:15:10.171Z,1.10
2022-08-23T04:18:52.172Z,0.95
2022-08-23T04:22:34.116Z,0.85
2022-08-23T04:26:16.055Z,0.82
2022-08-23T04:29:58.972Z,0.73
2022-08-23T04:33:40.873Z,0.80
2022-08-23T04:37:23.339Z,0.88
2022-08-23T04:41:23.911Z,0.73
2022-08-23T04:45:06.375Z,0.70
2022-08-23T04:48:48.639Z,0.88
2022-08-23T04:52:30.543Z,1.05
2022-08-23T04:56:12.431Z,0.90
2022-08-23T04:59:54.326Z,0.88
2022-08-23T05:03:36.756Z,1.00
2022-08-23T05:07:18.675Z,1.00
2022-08-23T05:11:05.852Z,0.80
2022-08-23T05:14:48.077Z,1.10
2022-08-23T05:18:29.954Z,1.00
2022-08-23T05:22:12.327Z,1.08
2022-08-23T05:25:55.411Z,1.00
2022-08-23T05:29:37.371Z,1.08
2022-08-23T05:33:19.366Z,1.23
2022-08-23T05:37:01.480Z,1.10
2022-08-23T05:40:43.392Z,1.15
2022-08-23T05:44:25.341Z,1.10
2022-08-23T05:48:07.715Z,0.80
2022-08-23T05:51:51.451Z,0.98
2022-08-23T05:55:35.018Z,0.90
2022-08-23T05:59:19.494Z,0.90
2022-08-23T06:03:01.770Z,0.85
2022-08-23T06:06:44.151Z,1.00
2022-08-23T06:10:26.059Z,0.98
2022-08-23T06:14:09.393Z,1.10
2022-08-23T06:17:51.300Z,0.90
2022-08-23T06:21:34.366Z,1.25
2022-08-23T06:25:16.274Z,1.30
2022-08-23T06:29:02.496Z,1.20
2022-08-23T06:32:44.512Z,0.90
2022-08-23T06:36:26.451Z,0.82
2022-08-23T06:40:08.795Z,1.00
2022-08-23T06:43:51.598Z,0.80
2022-08-23T06:47:33.458Z,0.70
2022-08-23T06:51:28.041Z,0.98
2022-08-23T06:55:13.601Z,0.90
2022-08-23T06:58:56.196Z,0.98
2022-08-23T07:02:38.650Z,0.90
2022-08-23T07:06:20.598Z,0.70
2022-08-23T07:10:02.612Z,0.88
2022-08-23T07:13:45.097Z,1.08
2022-08-23T07:17:26.966Z,0.80
2022-08-23T07:21:08.861Z,1.00
2022-08-23T07:24:50.676Z,0.85
2022-08-23T07:28:33.114Z,0.90
2022-08-23T07:32:15.026Z,1.25
2022-08-23T07:35:56.959Z,0.80
2022-08-23T07:39:39.815Z,1.20
2022-08-23T07:43:22.838Z,0.75
2022-08-23T07:47:04.835Z,1.00
2022-08-23T07:51:01.311Z,0.80
2022-08-23T07:54:48.579Z,0.88
2022-08-23T07:58:31.488Z,0.85
2022-08-23T08:02:13.461Z,0.90
2022-08-23T08:05:57.694Z,1.00
2022-08-23T08:09:39.905Z,1.00
2022-08-23T08:13:21.808Z,0.90
2022-08-23T08:17:03.815Z,1.10
2022-08-23T08:20:46.035Z,0.95
2022-08-23T08:24:27.902Z,1.20
2022-08-23T08:28:15.581Z,1.20
2022-08-23T08:31:58.079Z,1.00
2022-08-23T08:35:39.980Z,0.98
2022-08-23T08:39:26.538Z,0.60
2022-08-23T08:47:21.307Z,0.60
2022-08-23T08:51:32.585Z,0.60
2022-08-23T08:55:22.148Z,0.45
2022-08-23T08:59:07.939Z,0.40
2022-08-23T09:02:50.797Z,0.40
2022-08-23T09:06:47.525Z,0.40
2022-08-23T09:10:38.448Z,0.30
2022-08-23T09:14:49.710Z,0.30
2022-08-23T09:18:35.316Z,0.30
2022-08-23T09:22:25.815Z,0.40
2022-08-23T09:26:32.488Z,0.40
2022-08-23T09:30:17.522Z,0.30
2022-08-23T09:33:59.437Z,0.20
2022-08-23T09:38:01.665Z,0.40
2022-08-23T09:41:43.683Z,0.30
2022-08-23T09:45:33.158Z,0.30
2022-08-23T09:49:29.971Z,0.30
2022-08-23T09:53:14.579Z,0.20
2022-08-23T09:56:59.845Z,0.30
2022-08-23T10:00:42.029Z,0.28
2022-08-23T10:04:39.021Z,0.30
2022-08-23T10:08:33.623Z,0.30
2022-08-23T10:12:15.658Z,0.40
2022-08-23T10:16:34.297Z,0.30
2022-08-23T10:20:37.478Z,0.15
2022-08-23T10:24:34.355Z,0.17
2022-08-23T10:28:48.802Z,0.20
2022-08-23T10:32:48.328Z,0.10
2022-08-23T10:36:38.838Z,0.15
2022-08-23T10:40:39.486Z,0.10
2022-08-23T10:44:42.215Z,0.15
2022-08-23T10:48:53.870Z,0.10
2022-08-23T10:52:59.528Z,0.10
2022-08-23T10:56:51.262Z,0.10
2022-08-23T11:00:35.725Z,0.10
2022-08-23T11:04:36.651Z,0.17
2022-08-23T11:08:34.282Z,0.20
2022-08-23T11:12:24.075Z,0.15
2022-08-23T11:16:15.157Z,0.10
2022-08-23T11:20:04.571Z,0.10
2022-08-23T11:23:58.131Z,0.20
2022-08-23T11:27:43.084Z,0.10
2022-08-23T11:31:31.881Z,0.20
2022-08-23T11:35:33.084Z,0.20
2022-08-23T11:39:19.577Z,0.10
2022-08-23T11:43:26.178Z,0.28
2022-08-23T11:47:10.996Z,0.13
2022-08-23T11:50:58.165Z,0.20
2022-08-23T11:55:24.262Z,0.10
2022-08-23T11:59:42.804Z,0.08
2022-08-23T12:03:27.304Z,0.30
2022-08-23T12:07:13.686Z,0.10
2022-08-23T12:11:00.429Z,0.30
2022-08-23T12:14:45.365Z,0.22
2022-08-23T12:18:27.481Z,0.10
2022-08-23T12:22:15.779Z,0.15
2022-08-23T12:26:38.655Z,0.13
2022-08-23T12:30:42.769Z,0.10
2022-08-23T12:34:39.796Z,0.20
2022-08-23T12:38:27.575Z,0.25
2022-08-23T12:42:25.235Z,0.30
2022-08-23T12:46:07.238Z,0.20
2022-08-23T12:50:15.801Z,0.20
2022-08-23T12:54:13.342Z,0.10
2022-08-23T12:57:58.078Z,0.10
2022-08-23T13:01:42.021Z,0.10
2022-08-23T13:05:32.873Z,0.10
2022-08-23T13:09:42.574Z,0.03
2022-08-23T13:13:41.691Z,0.20
2022-08-23T13:17:26.460Z,0.10
2022-08-23T13:21:23.550Z,0.10
2022-08-23T13:25:29.221Z,0.20
2022-08-23T13:29:23.173Z,0.10
2022-08-23T13:33:08.122Z,0.20
2022-08-23T13:36:50.181Z,0.40
2022-08-23T13:40:41.209Z,0.13
2022-08-23T13:44:24.786Z,0.10
2022-08-23T13:48:14.438Z,0.20
2022-08-23T13:52:18.342Z,0.10
2022-08-23T13:56:01.138Z,0.20
2022-08-23T13:59:53.270Z,0.20
2022-08-23T14:03:35.246Z,0.10
2022-08-23T14:07:17.236Z,0.30
2022-08-23T14:10:59.312Z,0.10
2022-08-23T14:14:42.298Z,0.20
2022-08-23T14:18:24.205Z,0.10
2022-08-23T14:22:06.213Z,0.20
2022-08-23T14:25:51.316Z,0.20
2022-08-23T14:29:33.761Z,0.10
2022-08-23T14:33:15.783Z,0.10
2022-08-23T14:41:16.413Z,0.20
2022-08-23T14:44:58.422Z,0.20
2022-08-23T14:48:40.353Z,0.20
2022-08-23T14:52:22.677Z,0.20
2022-08-23T14:56:20.546Z,0.10
2022-08-23T15:00:05.478Z,0.20
2022-08-23T15:03:47.831Z,0.30
2022-08-23T15:07:29.716Z,0.20
2022-08-23T15:15:21.942Z,0.20
2022-08-23T15:19:04.447Z,0.20
2022-08-23T15:22:55.321Z,0.20
2022-08-23T15:26:38.338Z,0.47
2022-08-23T15:30:21.960Z,0.17
2022-08-23T15:34:04.625Z,0.30
2022-08-23T15:37:47.224Z,0.20
2022-08-23T15:41:29.114Z,0.22
2022-08-23T15:45:11.967Z,0.20
2022-08-23T15:49:02.098Z,0.20
2022-08-23T15:52:44.078Z,0.20
2022-08-23T15:56:37.109Z,0.20
2022-08-23T16:00:21.705Z,0.20
2022-08-23T16:04:04.258Z,0.20
2022-08-23T16:07:47.156Z,0.10
2022-08-23T16:11:29.156Z,0.20
2022-08-23T16:15:11.313Z,0.10
2022-08-23T16:18:54.208Z,0.20
2022-08-23T16:22:36.624Z,0.20
2022-08-23T16:26:22.500Z,0.10
2022-08-23T16:30:17.227Z,0.10
2022-08-23T16:34:00.865Z,0.13
2022-08-23T16:37:42.726Z,0.20
2022-08-23T16:41:24.691Z,0.10
2022-08-23T16:45:07.669Z,0.20
2022-08-23T16:48:49.814Z,0.20
2022-08-23T16:52:34.717Z,0.10
2022-08-23T16:56:17.929Z,0.10
2022-08-23T16:59:59.881Z,0.10
2022-08-23T17:03:42.932Z,0.05
2022-08-23T17:07:25.321Z,0.20
2022-08-23T17:11:12.818Z,0.10
2022-08-23T17:14:57.210Z,0.30
2022-08-23T17:18:39.635Z,0.10
2022-08-23T17:22:21.488Z,0.20
2022-08-23T17:26:03.528Z,0.08
2022-08-23T17:29:45.368Z,0.10
2022-08-23T17:33:28.578Z,0.20
2022-08-23T17:37:20.999Z,0.10
2022-08-23T17:41:02.939Z,0.20
2022-08-23T17:44:45.360Z,0.40
2022-08-23T17:48:28.569Z,0.20
2022-08-23T17:52:12.133Z,0.30
2022-08-23T17:55:55.098Z,0.30
2022-08-23T17:59:37.648Z,0.30
2022-08-23T18:03:19.597Z,0.28
2022-08-23T18:07:02.013Z,0.40
2022-08-23T18:10:43.931Z,0.30
2022-08-23T18:14:27.777Z,0.40
2022-08-23T18:18:10.017Z,0.45
2022-08-23T18:21:51.982Z,0.52
2022-08-23T18:25:34.141Z,0.50
2022-08-23T18:29:16.597Z,0.50
2022-08-23T18:32:59.290Z,0.30
2022-08-23T18:36:41.897Z,0.50
2022-08-23T18:40:25.089Z,0.40
2022-08-23T18:44:08.358Z,0.52
2022-08-23T18:47:50.285Z,0.40
2022-08-23T18:51:32.231Z,0.65
2022-08-23T18:55:16.174Z,0.73
2022-08-23T18:58:58.039Z,0.60
2022-08-23T19:02:40.006Z,0.95
2022-08-23T19:06:23.081Z,0.60
2022-08-23T19:10:05.635Z,0.73
2022-08-23T19:13:48.141Z,0.85
2022-08-23T19:17:30.047Z,0.85
2022-08-23T19:21:18.267Z,0.70
2022-08-23T19:28:42.367Z,0.65
2022-08-23T19:32:24.325Z,0.60
2022-08-23T19:36:06.779Z,0.60
2022-08-23T19:39:48.839Z,0.70
2022-08-23T19:43:31.607Z,0.60
2022-08-23T19:47:19.647Z,0.80
2022-08-23T19:51:03.620Z,0.65
2022-08-23T19:54:45.569Z,0.60
2022-08-23T19:58:28.418Z,0.73
2022-08-23T20:02:14.249Z,0.43
2022-08-23T20:05:56.143Z,0.70
2022-08-23T20:09:38.059Z,0.70
2022-08-23T20:13:20.775Z,0.47
2022-08-23T20:17:04.569Z,0.60
2022-08-23T20:20:46.486Z,0.60
2022-08-23T20:24:48.717Z,0.60
2022-08-23T20:28:30.241Z,0.57
2022-08-23T20:32:12.192Z,0.55
2022-08-23T20:35:54.016Z,0.50
2022-08-23T20:39:35.909Z,0.52
2022-08-23T20:43:17.807Z,0.40
2022-08-23T20:47:02.771Z,0.60
2022-08-23T20:50:45.137Z,0.50
2022-08-23T20:54:27.284Z,0.80
2022-08-23T20:58:09.423Z,0.55
2022-08-23T21:01:51.461Z,0.80
2022-08-23T21:05:33.468Z,0.60
2022-08-23T21:09:20.805Z,0.80
2022-08-23T21:13:05.072Z,0.60
2022-08-23T21:16:52.662Z,0.57
2022-08-23T21:20:34.576Z,0.60
2022-08-23T21:24:16.734Z,0.70
2022-08-23T21:28:02.213Z,0.82
2022-08-23T21:31:46.132Z,0.50
2022-08-23T21:35:30.173Z,0.60
2022-08-23T21:39:12.089Z,0.60
2022-08-23T21:42:54.069Z,0.60
2022-08-23T21:46:36.298Z,0.50
2022-08-23T21:50:18.404Z,0.60
2022-08-23T21:54:00.438Z,0.50
2022-08-23T21:57:43.420Z,0.60
2022-08-23T22:01:26.057Z,0.60
2022-08-23T22:05:08.507Z,0.45
2022-08-23T22:08:50.460Z,0.40
2022-08-23T22:12:33.571Z,0.60
2022-08-23T22:16:15.948Z,0.40
2022-08-23T22:19:57.852Z,0.60
2022-08-23T22:23:43.389Z,0.40
2022-08-23T22:27:25.464Z,0.40
2022-08-23T22:31:07.694Z,0.50
2022-08-23T22:34:49.751Z,0.60
2022-08-23T22:38:31.851Z,0.50
2022-08-23T22:42:13.872Z,0.50
2022-08-23T22:45:58.841Z,0.52
2022-08-23T22:49:42.652Z,0.50
2022-08-23T22:53:24.579Z,0.60
2022-08-23T22:57:06.459Z,0.50
2022-08-23T23:00:48.390Z,0.60
2022-08-23T23:04:32.353Z,0.50
2022-08-23T23:08:30.052Z,0.50
2022-08-23T23:12:12.906Z,0.52
2022-08-23T23:15:55.579Z,0.68
2022-08-23T23:19:55.855Z,0.60
2022-08-23T23:23:37.987Z,0.57
2022-08-23T23:27:19.863Z,0.50
2022-08-23T23:31:03.419Z,0.50
2022-08-23T23:34:45.359Z,0.50
2022-08-23T23:38:27.251Z,0.40
2022-08-23T23:42:09.137Z,0.60
2022-08-23T23:45:51.067Z,0.45
2022-08-23T23:49:33.624Z,0.50
2022-08-23T23:53:15.889Z,0.40
2022-08-23T23:56:57.801Z,0.30
